sensor_id;sensor_type;location;lat;lon;timestamp;pressure;altitude;pressure_sealevel;temperature;humidity
49877;BME280;35771;48.978;9.294;2022-11-20T00:00:47;98531.59;;;3.46;100.00
49877;BME280;35771;48.978;9.294;2022-11-20T00:03:14;98530.47;;;3.30;100.00
49877;BME280;35771;48.978;9.294;2022-11-20T00:05:41;98540.81;;;3.43;100.00
49877;BME280;35771;48.978;9.294;2022-11-20T00:08:07;98544.84;;;3.39;100.00
49877;BME280;35771;48.978;9.294;2022-11-20T00:10:36;98539.16;;;3.42;100.00
49877;BME280;35771;48.978;9.294;2022-11-20T00:13:03;98542.66;;;3.43;100.00
49877;BME280;35771;48.978;9.294;2022-11-20T00:15:31;98539.03;;;3.52;100.00
49877;BME280;35771;48.978;9.294;2022-11-20T00:17:57;98529.22;;;3.43;100.00
49877;BME280;35771;48.978;9.294;2022-11-20T00:20:24;98530.78;;;3.45;100.00
49877;BME280;35771;48.978;9.294;2022-11-20T00:22:51;98534.28;;;3.46;100.00
49877;BME280;35771;48.978;9.294;2022-11-20T00:25:18;98528.84;;;3.56;100.00
49877;BME280;35771;48.978;9.294;2022-11-20T00:27:44;98534.69;;;3.51;100.00
49877;BME280;35771;48.978;9.294;2022-11-20T00:30:11;98540.28;;;3.40;100.00
49877;BME280;35771;48.978;9.294;2022-11-20T00:32:39;98528.38;;;3.60;100.00
49877;BME280;35771;48.978;9.294;2022-11-20T00:35:06;98552.09;;;3.65;100.00
49877;BME280;35771;48.978;9.294;2022-11-20T00:37:33;98543.47;;;3.61;100.00
49877;BME280;35771;48.978;9.294;2022-11-20T00:39:59;98543.63;;;3.60;100.00
49877;BME280;35771;48.978;9.294;2022-11-20T00:42:26;98543.28;;;3.54;100.00
49877;BME280;35771;48.978;9.294;2022-11-20T00:44:52;98521.00;;;3.44;100.00
49877;BME280;35771;48.978;9.294;2022-11-20T00:47:19;98540.78;;;3.61;100.00
49877;BME280;35771;48.978;9.294;2022-11-20T00:49:47;98540.34;;;3.66;100.00
49877;BME280;35771;48.978;9.294;2022-11-20T00:52:13;98545.72;;;3.66;100.00
49877;BME280;35771;48.978;9.294;2022-11-20T00:54:40;98531.81;;;3.70;100.00
49877;BME280;35771;48.978;9.294;2022-11-20T00:57:06;98551.38;;;3.81;100.00
49877;BME280;35771;48.978;9.294;2022-11-20T00:59:33;98535.09;;;3.64;100.00
49877;BME280;35771;48.978;9.294;2022-11-20T01:01:59;98533.47;;;3.71;100.00
49877;BME280;35771;48.978;9.294;2022-11-20T01:04:26;98524.06;;;3.67;100.00
49877;BME280;35771;48.978;9.294;2022-11-20T01:06:54;98529.88;;;3.63;100.00
49877;BME280;35771;48.978;9.294;2022-11-20T01:09:21;98538.50;;;3.66;100.00
49877;BME280;35771;48.978;9.294;2022-11-20T01:11:47;98540.25;;;3.76;100.00
49877;BME280;35771;48.978;9.294;2022-11-20T01:14:19;98534.59;;;3.61;100.00
49877;BME280;35771;48.978;9.294;2022-11-20T01:16:47;98539.56;;;3.74;100.00
49877;BME280;35771;48.978;9.294;2022-11-20T01:19:16;98537.88;;;3.72;100.00
49877;BME280;35771;48.978;9.294;2022-11-20T01:21:44;98552.91;;;3.83;100.00
49877;BME280;35771;48.978;9.294;2022-11-20T01:24:14;98550.38;;;3.82;100.00
49877;BME280;35771;48.978;9.294;2022-11-20T01:26:43;98538.72;;;3.73;100.00
49877;BME280;35771;48.978;9.294;2022-11-20T01:29:13;98532.34;;;3.74;100.00
49877;BME280;35771;48.978;9.294;2022-11-20T01:31:40;98547.63;;;3.74;100.00
49877;BME280;35771;48.978;9.294;2022-11-20T01:34:11;98546.56;;;3.66;100.00
49877;BME280;35771;48.978;9.294;2022-11-20T01:36:38;98560.22;;;3.73;100.00
49877;BME280;35771;48.978;9.294;2022-11-20T01:39:07;98564.41;;;3.94;100.00
49877;BME280;35771;48.978;9.294;2022-11-20T01:41:37;98570.78;;;3.93;100.00
49877;BME280;35771;48.978;9.294;2022-11-20T01:47:07;98537.16;;;3.88;100.00
49877;BME280;35771;48.978;9.294;2022-11-20T01:49:38;98537.00;;;3.90;100.00
49877;BME280;35771;48.978;9.294;2022-11-20T01:52:12;98538.19;;;3.96;100.00
49877;BME280;35771;48.978;9.294;2022-11-20T01:54:47;98536.22;;;3.98;100.00
49877;BME280;35771;48.978;9.294;2022-11-20T01:57:16;98535.56;;;4.04;100.00
49877;BME280;35771;48.978;9.294;2022-11-20T01:59:47;98528.06;;;3.89;100.00
49877;BME280;35771;48.978;9.294;2022-11-20T02:02:17;98510.59;;;3.85;100.00
49877;BME280;35771;48.978;9.294;2022-11-20T02:04:44;98548.88;;;4.05;100.00
49877;BME280;35771;48.978;9.294;2022-11-20T02:07:11;98532.66;;;3.97;100.00
49877;BME280;35771;48.978;9.294;2022-11-20T02:09:38;98513.78;;;3.89;100.00
49877;BME280;35771;48.978;9.294;2022-11-20T02:12:05;98520.94;;;3.80;100.00
49877;BME280;35771;48.978;9.294;2022-11-20T02:14:53;98542.63;;;4.05;100.00
49877;BME280;35771;48.978;9.294;2022-11-20T02:17:19;98530.66;;;3.99;100.00
49877;BME280;35771;48.978;9.294;2022-11-20T02:19:46;98531.97;;;3.95;100.00
49877;BME280;35771;48.978;9.294;2022-11-20T02:22:14;98526.28;;;3.98;100.00
49877;BME280;35771;48.978;9.294;2022-11-20T02:24:46;98536.38;;;3.96;100.00
49877;BME280;35771;48.978;9.294;2022-11-20T02:27:15;98532.88;;;4.04;100.00
49877;BME280;35771;48.978;9.294;2022-11-20T02:29:46;98551.06;;;4.10;100.00
49877;BME280;35771;48.978;9.294;2022-11-20T02:32:18;98537.25;;;4.05;100.00
49877;BME280;35771;48.978;9.294;2022-11-20T02:34:45;98550.09;;;4.11;100.00
49877;BME280;35771;48.978;9.294;2022-11-20T02:37:12;98537.03;;;3.98;100.00
49877;BME280;35771;48.978;9.294;2022-11-20T02:39:41;98532.41;;;4.08;100.00
49877;BME280;35771;48.978;9.294;2022-11-20T02:42:09;98524.81;;;4.04;100.00
49877;BME280;35771;48.978;9.294;2022-11-20T02:44:36;98546.59;;;4.19;100.00
49877;BME280;35771;48.978;9.294;2022-11-20T02:47:03;98543.94;;;4.27;100.00
49877;BME280;35771;48.978;9.294;2022-11-20T02:49:29;98518.47;;;4.13;100.00
49877;BME280;35771;48.978;9.294;2022-11-20T02:51:56;98548.63;;;4.25;100.00
49877;BME280;35771;48.978;9.294;2022-11-20T02:54:23;98529.75;;;4.17;100.00
49877;BME280;35771;48.978;9.294;2022-11-20T02:56:49;98530.31;;;4.29;100.00
49877;BME280;35771;48.978;9.294;2022-11-20T02:59:17;98538.94;;;4.32;100.00
49877;BME280;35771;48.978;9.294;2022-11-20T03:01:44;98542.41;;;4.24;100.00
49877;BME280;35771;48.978;9.294;2022-11-20T03:04:11;98524.59;;;4.23;100.00
49877;BME280;35771;48.978;9.294;2022-11-20T03:06:38;98514.31;;;4.19;100.00
49877;BME280;35771;48.978;9.294;2022-11-20T03:09:04;98514.81;;;4.22;100.00
49877;BME280;35771;48.978;9.294;2022-11-20T03:11:31;98530.84;;;4.32;100.00
49877;BME280;35771;48.978;9.294;2022-11-20T03:13:57;98538.44;;;4.37;100.00
49877;BME280;35771;48.978;9.294;2022-11-20T03:16:30;98511.47;;;4.20;100.00
49877;BME280;35771;48.978;9.294;2022-11-20T03:18:56;98513.28;;;4.20;100.00
49877;BME280;35771;48.978;9.294;2022-11-20T03:21:23;98504.06;;;4.22;100.00
49877;BME280;35771;48.978;9.294;2022-11-20T03:23:50;98522.47;;;4.35;100.00
49877;BME280;35771;48.978;9.294;2022-11-20T03:26:18;98508.78;;;4.29;100.00
49877;BME280;35771;48.978;9.294;2022-11-20T03:28:49;98508.16;;;4.35;100.00
49877;BME280;35771;48.978;9.294;2022-11-20T03:31:18;98517.25;;;4.42;100.00
49877;BME280;35771;48.978;9.294;2022-11-20T03:33:47;98494.34;;;4.30;100.00
49877;BME280;35771;48.978;9.294;2022-11-20T03:36:15;98496.88;;;4.31;100.00
49877;BME280;35771;48.978;9.294;2022-11-20T03:38:42;98512.75;;;4.51;100.00
49877;BME280;35771;48.978;9.294;2022-11-20T03:41:10;98517.47;;;4.49;100.00
49877;BME280;35771;48.978;9.294;2022-11-20T03:43:37;98494.34;;;4.30;100.00
49877;BME280;35771;48.978;9.294;2022-11-20T03:46:05;98522.31;;;4.45;100.00
49877;BME280;35771;48.978;9.294;2022-11-20T03:48:32;98507.31;;;4.34;100.00
49877;BME280;35771;48.978;9.294;2022-11-20T03:51:11;98516.44;;;4.50;100.00
49877;BME280;35771;48.978;9.294;2022-11-20T03:53:37;98498.44;;;4.42;100.00
49877;BME280;35771;48.978;9.294;2022-11-20T03:56:05;98509.56;;;4.47;100.00
49877;BME280;35771;48.978;9.294;2022-11-20T03:58:32;98494.66;;;4.27;100.00
49877;BME280;35771;48.978;9.294;2022-11-20T04:01:04;98504.94;;;4.31;100.00
49877;BME280;35771;48.978;9.294;2022-11-20T04:03:31;98522.22;;;4.55;100.00
49877;BME280;35771;48.978;9.294;2022-11-20T04:06:02;98496.38;;;4.36;100.00
49877;BME280;35771;48.978;9.294;2022-11-20T04:08:30;98504.63;;;4.34;100.00
49877;BME280;35771;48.978;9.294;2022-11-20T04:10:56;98515.25;;;4.44;100.00
49877;BME280;35771;48.978;9.294;2022-11-20T04:13:33;98526.00;;;4.44;100.00
49877;BME280;35771;48.978;9.294;2022-11-20T04:16:00;98515.25;;;4.44;100.00
49877;BME280;35771;48.978;9.294;2022-11-20T04:18:26;98488.63;;;4.33;100.00
49877;BME280;35771;48.978;9.294;2022-11-20T04:20:53;98483.56;;;4.30;100.00
49877;BME280;35771;48.978;9.294;2022-11-20T04:23:19;98515.25;;;4.44;100.00
49877;BME280;35771;48.978;9.294;2022-11-20T04:25:47;98484.47;;;4.38;100.00
49877;BME280;35771;48.978;9.294;2022-11-20T04:28:14;98490.00;;;4.37;100.00
49877;BME280;35771;48.978;9.294;2022-11-20T04:30:40;98514.63;;;4.58;100.00
49877;BME280;35771;48.978;9.294;2022-11-20T04:33:07;98480.06;;;4.37;100.00
49877;BME280;35771;48.978;9.294;2022-11-20T04:35:34;98504.88;;;4.57;100.00
49877;BME280;35771;48.978;9.294;2022-11-20T04:38:01;98487.97;;;4.39;100.00
49877;BME280;35771;48.978;9.294;2022-11-20T04:40:28;98473.88;;;4.45;100.00
49877;BME280;35771;48.978;9.294;2022-11-20T04:42:56;98496.63;;;4.51;100.00
49877;BME280;35771;48.978;9.294;2022-11-20T04:45:23;98492.03;;;4.43;100.00
49877;BME280;35771;48.978;9.294;2022-11-20T04:47:50;98498.16;;;4.53;100.00
49877;BME280;35771;48.978;9.294;2022-11-20T04:50:16;98518.66;;;4.54;100.00
49877;BME280;35771;48.978;9.294;2022-11-20T04:52:43;98484.31;;;4.48;100.00
49877;BME280;35771;48.978;9.294;2022-11-20T04:55:09;98500.84;;;4.53;100.00
49877;BME280;35771;48.978;9.294;2022-11-20T04:57:36;98512.28;;;4.55;100.00
49877;BME280;35771;48.978;9.294;2022-11-20T05:00:05;98497.59;;;4.41;100.00
49877;BME280;35771;48.978;9.294;2022-11-20T05:02:32;98501.19;;;4.58;100.00
49877;BME280;35771;48.978;9.294;2022-11-20T05:04:58;98485.63;;;4.44;100.00
49877;BME280;35771;48.978;9.294;2022-11-20T05:07:25;98490.56;;;4.57;100.00
49877;BME280;35771;48.978;9.294;2022-11-20T05:09:51;98475.75;;;4.45;100.00
49877;BME280;35771;48.978;9.294;2022-11-20T05:12:18;98491.72;;;4.46;100.00
49877;BME280;35771;48.978;9.294;2022-11-20T05:14:45;98496.31;;;4.62;100.00
49877;BME280;35771;48.978;9.294;2022-11-20T05:17:12;98468.22;;;4.56;100.00
49877;BME280;35771;48.978;9.294;2022-11-20T05:19:39;98481.28;;;4.51;100.00
49877;BME280;35771;48.978;9.294;2022-11-20T05:22:06;98497.63;;;4.50;100.00
49877;BME280;35771;48.978;9.294;2022-11-20T05:24:32;98499.69;;;4.64;100.00
49877;BME280;35771;48.978;9.294;2022-11-20T05:26:59;98497.16;;;4.63;100.00
49877;BME280;35771;48.978;9.294;2022-11-20T05:29:25;98479.13;;;4.55;100.00
49877;BME280;35771;48.978;9.294;2022-11-20T05:31:52;98490.41;;;4.58;100.00
49877;BME280;35771;48.978;9.294;2022-11-20T05:34:20;98501.56;;;4.72;100.00
49877;BME280;35771;48.978;9.294;2022-11-20T05:36:46;98480.97;;;4.54;100.00
49877;BME280;35771;48.978;9.294;2022-11-20T05:39:13;98481.63;;;4.48;100.00
49877;BME280;35771;48.978;9.294;2022-11-20T05:41:39;98490.06;;;4.53;100.00
49877;BME280;35771;48.978;9.294;2022-11-20T05:44:06;98486.69;;;4.51;100.00
49877;BME280;35771;48.978;9.294;2022-11-20T05:46:32;98488.03;;;4.47;100.00
49877;BME280;35771;48.978;9.294;2022-11-20T05:48:59;98476.00;;;4.33;100.00
49877;BME280;35771;48.978;9.294;2022-11-20T05:51:27;98491.56;;;4.48;100.00
49877;BME280;35771;48.978;9.294;2022-11-20T05:53:56;98496.63;;;4.59;100.00
49877;BME280;35771;48.978;9.294;2022-11-20T05:56:22;98478.94;;;4.48;100.00
49877;BME280;35771;48.978;9.294;2022-11-20T05:58:49;98478.59;;;4.43;100.00
49877;BME280;35771;48.978;9.294;2022-11-20T06:01:18;98494.97;;;4.58;100.00
49877;BME280;35771;48.978;9.294;2022-11-20T06:03:45;98471.50;;;4.42;100.00
49877;BME280;35771;48.978;9.294;2022-11-20T06:06:13;98492.75;;;4.53;100.00
49877;BME280;35771;48.978;9.294;2022-11-20T06:08:41;98463.59;;;4.32;100.00
49877;BME280;35771;48.978;9.294;2022-11-20T06:11:09;98473.16;;;4.35;100.00
49877;BME280;35771;48.978;9.294;2022-11-20T06:13:36;98489.19;;;4.45;100.00
49877;BME280;35771;48.978;9.294;2022-11-20T06:16:03;98463.59;;;4.32;100.00
49877;BME280;35771;48.978;9.294;2022-11-20T06:18:30;98494.59;;;4.53;100.00
49877;BME280;35771;48.978;9.294;2022-11-20T06:21:02;98466.63;;;4.37;100.00
49877;BME280;35771;48.978;9.294;2022-11-20T06:23:30;98465.63;;;4.47;100.00
49877;BME280;35771;48.978;9.294;2022-11-20T06:25:58;98485.19;;;4.57;100.00
49877;BME280;35771;48.978;9.294;2022-11-20T06:28:26;98483.50;;;4.56;100.00
49877;BME280;35771;48.978;9.294;2022-11-20T06:30:53;98463.94;;;4.37;100.00
49877;BME280;35771;48.978;9.294;2022-11-20T06:33:20;98488.88;;;4.56;100.00
49877;BME280;35771;48.978;9.294;2022-11-20T06:35:48;98465.28;;;4.41;100.00
49877;BME280;35771;48.978;9.294;2022-11-20T06:38:15;98459.53;;;4.36;100.00
49877;BME280;35771;48.978;9.294;2022-11-20T06:40:43;98453.16;;;4.37;100.00
49877;BME280;35771;48.978;9.294;2022-11-20T06:43:11;98456.03;;;4.36;100.00
49877;BME280;35771;48.978;9.294;2022-11-20T06:45:38;98477.78;;;4.51;100.00
49877;BME280;35771;48.978;9.294;2022-11-20T06:48:05;98465.47;;;4.48;100.00
49877;BME280;35771;48.978;9.294;2022-11-20T06:50:32;98467.19;;;4.57;100.00
49877;BME280;35771;48.978;9.294;2022-11-20T06:53:01;98465.84;;;4.53;100.00
49877;BME280;35771;48.978;9.294;2022-11-20T06:55:28;98459.25;;;4.48;100.00
49877;BME280;35771;48.978;9.294;2022-11-20T06:57:55;98469.38;;;4.54;100.00
49877;BME280;35771;48.978;9.294;2022-11-20T07:00:23;98463.31;;;4.52;100.00
49877;BME280;35771;48.978;9.294;2022-11-20T07:02:50;98491.41;;;4.57;100.00
49877;BME280;35771;48.978;9.294;2022-11-20T07:05:17;98492.78;;;4.61;100.00
49877;BME280;35771;48.978;9.294;2022-11-20T07:07:44;98481.66;;;4.56;100.00
49877;BME280;35771;48.978;9.294;2022-11-20T07:10:11;98471.06;;;4.55;100.00
49877;BME280;35771;48.978;9.294;2022-11-20T07:12:37;98505.09;;;4.72;100.00
49877;BME280;35771;48.978;9.294;2022-11-20T07:15:05;98490.13;;;4.70;100.00
49877;BME280;35771;48.978;9.294;2022-11-20T07:17:33;98487.09;;;4.73;100.00
49877;BME280;35771;48.978;9.294;2022-11-20T07:20:00;98498.22;;;4.78;100.00
49877;BME280;35771;48.978;9.294;2022-11-20T07:22:26;98496.00;;;4.73;100.00
49877;BME280;35771;48.978;9.294;2022-11-20T07:24:53;98506.13;;;4.79;100.00
49877;BME280;35771;48.978;9.294;2022-11-20T07:27:19;98499.75;;;4.81;100.00
49877;BME280;35771;48.978;9.294;2022-11-20T07:29:46;98505.47;;;4.86;100.00
49877;BME280;35771;48.978;9.294;2022-11-20T07:32:12;98496.84;;;4.74;100.00
49877;BME280;35771;48.978;9.294;2022-11-20T07:34:40;98497.72;;;4.74;100.00
49877;BME280;35771;48.978;9.294;2022-11-20T07:37:07;98508.81;;;4.79;100.00
49877;BME280;35771;48.978;9.294;2022-11-20T07:39:33;98523.31;;;4.87;100.00
49877;BME280;35771;48.978;9.294;2022-11-20T07:42:00;98512.06;;;4.91;100.00
49877;BME280;35771;48.978;9.294;2022-11-20T07:44:26;98511.06;;;5.01;100.00
49877;BME280;35771;48.978;9.294;2022-11-20T07:46:53;98532.44;;;4.94;100.00
49877;BME280;35771;48.978;9.294;2022-11-20T07:49:23;98528.38;;;4.90;100.00
49877;BME280;35771;48.978;9.294;2022-11-20T07:51:51;98523.50;;;4.93;100.00
49877;BME280;35771;48.978;9.294;2022-11-20T07:54:19;98501.63;;;4.88;100.00
49877;BME280;35771;48.978;9.294;2022-11-20T07:56:45;98523.66;;;4.92;100.00
49877;BME280;35771;48.978;9.294;2022-11-20T07:59:12;98529.91;;;5.01;100.00
49877;BME280;35771;48.978;9.294;2022-11-20T08:01:39;98511.56;;;4.96;100.00
49877;BME280;35771;48.978;9.294;2022-11-20T08:04:06;98501.13;;;4.93;100.00
49877;BME280;35771;48.978;9.294;2022-11-20T08:06:33;98519.31;;;4.99;100.00
49877;BME280;35771;48.978;9.294;2022-11-20T08:09:01;98527.56;;;5.06;100.00
49877;BME280;35771;48.978;9.294;2022-11-20T08:11:27;98506.66;;;4.91;100.00
49877;BME280;35771;48.978;9.294;2022-11-20T08:14:11;98523.38;;;5.03;100.00
49877;BME280;35771;48.978;9.294;2022-11-20T08:16:38;98515.94;;;4.97;100.00
49877;BME280;35771;48.978;9.294;2022-11-20T08:19:08;98530.63;;;5.11;100.00
49877;BME280;35771;48.978;9.294;2022-11-20T08:21:35;98533.31;;;5.11;100.00
49877;BME280;35771;48.978;9.294;2022-11-20T08:24:28;98505.00;;;5.07;100.00
49877;BME280;35771;48.978;9.294;2022-11-20T08:26:57;98509.72;;;5.05;100.00
49877;BME280;35771;48.978;9.294;2022-11-20T08:29:24;98542.94;;;5.22;100.00
49877;BME280;35771;48.978;9.294;2022-11-20T08:31:50;98528.75;;;5.03;100.00
49877;BME280;35771;48.978;9.294;2022-11-20T08:34:17;98530.13;;;5.07;100.00
49877;BME280;35771;48.978;9.294;2022-11-20T08:36:46;98526.41;;;5.00;100.00
49877;BME280;35771;48.978;9.294;2022-11-20T08:39:13;98535.81;;;5.04;100.00
49877;BME280;35771;48.978;9.294;2022-11-20T08:41:41;98528.91;;;5.10;100.00
49877;BME280;35771;48.978;9.294;2022-11-20T08:44:08;98533.69;;;5.24;100.00
49877;BME280;35771;48.978;9.294;2022-11-20T08:46:37;98529.94;;;5.17;100.00
49877;BME280;35771;48.978;9.294;2022-11-20T08:49:07;98526.25;;;5.18;100.00
49877;BME280;35771;48.978;9.294;2022-11-20T08:51:34;98512.94;;;5.17;100.00
49877;BME280;35771;48.978;9.294;2022-11-20T08:54:01;98530.44;;;5.12;100.00
49877;BME280;35771;48.978;9.294;2022-11-20T08:56:27;98560.13;;;5.29;100.00
49877;BME280;35771;48.978;9.294;2022-11-20T08:58:55;98537.69;;;5.12;100.00
49877;BME280;35771;48.978;9.294;2022-11-20T09:01:23;98544.25;;;5.09;100.00
49877;BME280;35771;48.978;9.294;2022-11-20T09:03:49;98558.25;;;5.21;100.00
49877;BME280;35771;48.978;9.294;2022-11-20T09:06:16;98563.97;;;5.18;100.00
49877;BME280;35771;48.978;9.294;2022-11-20T09:08:43;98561.97;;;5.20;100.00
49877;BME280;35771;48.978;9.294;2022-11-20T09:11:10;98559.47;;;5.27;100.00
49877;BME280;35771;48.978;9.294;2022-11-20T09:13:37;98548.81;;;5.17;100.00
49877;BME280;35771;48.978;9.294;2022-11-20T09:16:07;98538.91;;;5.26;100.00
49877;BME280;35771;48.978;9.294;2022-11-20T09:18:35;98550.00;;;5.31;100.00
49877;BME280;35771;48.978;9.294;2022-11-20T09:21:05;98550.50;;;5.26;100.00
49877;BME280;35771;48.978;9.294;2022-11-20T09:23:33;98540.59;;;5.27;100.00
49877;BME280;35771;48.978;9.294;2022-11-20T09:26:02;98549.50;;;5.27;100.00
49877;BME280;35771;48.978;9.294;2022-11-20T09:28:29;98560.13;;;5.29;100.00
49877;BME280;35771;48.978;9.294;2022-11-20T09:30:56;98558.25;;;5.21;100.00
49877;BME280;35771;48.978;9.294;2022-11-20T09:33:24;98551.19;;;5.20;100.00
49877;BME280;35771;48.978;9.294;2022-11-20T09:35:52;98561.50;;;5.33;100.00
49877;BME280;35771;48.978;9.294;2022-11-20T09:38:19;98561.81;;;5.30;100.00
49877;BME280;35771;48.978;9.294;2022-11-20T09:40:51;98569.75;;;5.48;100.00
49877;BME280;35771;48.978;9.294;2022-11-20T09:43:28;98551.19;;;5.37;100.00
49877;BME280;35771;48.978;9.294;2022-11-20T09:46:05;98541.94;;;5.47;100.00
49877;BME280;35771;48.978;9.294;2022-11-20T09:48:46;98571.44;;;5.65;100.00
49877;BME280;35771;48.978;9.294;2022-11-20T09:51:24;98561.34;;;5.67;100.00
49877;BME280;35771;48.978;9.294;2022-11-20T09:54:04;98567.41;;;5.70;100.00
49877;BME280;35771;48.978;9.294;2022-11-20T09:56:34;98559.31;;;5.70;100.00
49877;BME280;35771;48.978;9.294;2022-11-20T09:59:05;98562.34;;;5.75;100.00
49877;BME280;35771;48.978;9.294;2022-11-20T10:01:35;98545.00;;;5.69;100.00
49877;BME280;35771;48.978;9.294;2022-11-20T10:04:09;98571.78;;;5.79;100.00
49877;BME280;35771;48.978;9.294;2022-11-20T10:06:41;98550.06;;;5.72;100.00
49877;BME280;35771;48.978;9.294;2022-11-20T10:09:20;98558.63;;;5.76;100.00
49877;BME280;35771;48.978;9.294;2022-11-20T10:11:54;98559.31;;;5.86;100.00
49877;BME280;35771;48.978;9.294;2022-11-20T10:14:32;98558.97;;;5.81;100.00
49877;BME280;35771;48.978;9.294;2022-11-20T10:17:11;98551.56;;;5.66;100.00
49877;BME280;35771;48.978;9.294;2022-11-20T10:19:55;98567.75;;;5.83;100.00
49877;BME280;35771;48.978;9.294;2022-11-20T10:22:39;98550.88;;;5.81;100.00
49877;BME280;35771;48.978;9.294;2022-11-20T10:25:14;98547.69;;;5.77;100.00
49877;BME280;35771;48.978;9.294;2022-11-20T10:30:25;98559.47;;;5.76;100.00
49877;BME280;35771;48.978;9.294;2022-11-20T10:32:54;98545.84;;;5.70;100.00
49877;BME280;35771;48.978;9.294;2022-11-20T10:35:28;98567.41;;;5.78;100.00
49877;BME280;35771;48.978;9.294;2022-11-20T10:38:00;98558.66;;;5.67;100.00
49877;BME280;35771;48.978;9.294;2022-11-20T10:40:32;98574.50;;;5.79;100.00
49877;BME280;35771;48.978;9.294;2022-11-20T10:43:04;98555.97;;;5.67;100.00
49877;BME280;35771;48.978;9.294;2022-11-20T10:45:42;98586.78;;;5.90;100.00
49877;BME280;35771;48.978;9.294;2022-11-20T10:48:16;98568.91;;;5.80;100.00
49877;BME280;35771;48.978;9.294;2022-11-20T10:51:15;98556.28;;;5.89;100.00
49877;BME280;35771;48.978;9.294;2022-11-20T10:53:53;98557.47;;;6.03;100.00
49877;BME280;35771;48.978;9.294;2022-11-20T10:56:27;98551.75;;;5.98;100.00
49877;BME280;35771;48.978;9.294;2022-11-20T10:59:11;98553.25;;;6.00;100.00
49877;BME280;35771;48.978;9.294;2022-11-20T11:01:40;98560.66;;;6.07;100.00
49877;BME280;35771;48.978;9.294;2022-11-20T11:04:23;98554.28;;;5.99;100.00
49877;BME280;35771;48.978;9.294;2022-11-20T11:06:58;98574.16;;;6.07;100.00
49877;BME280;35771;48.978;9.294;2022-11-20T11:09:33;98554.41;;;5.90;100.00
49877;BME280;35771;48.978;9.294;2022-11-20T11:12:00;98562.88;;;6.03;100.00
49877;BME280;35771;48.978;9.294;2022-11-20T11:14:27;98553.25;;;5.92;100.00
49877;BME280;35771;48.978;9.294;2022-11-20T11:16:56;98564.56;;;6.04;100.00
49877;BME280;35771;48.978;9.294;2022-11-20T11:19:23;98564.22;;;6.07;100.00
49877;BME280;35771;48.978;9.294;2022-11-20T11:21:52;98552.59;;;5.98;100.00
49877;BME280;35771;48.978;9.294;2022-11-20T11:24:23;98521.72;;;5.84;100.00
49877;BME280;35771;48.978;9.294;2022-11-20T11:26:55;98539.41;;;6.03;100.00
49877;BME280;35771;48.978;9.294;2022-11-20T11:29:22;98521.56;;;5.86;100.00
49877;BME280;35771;48.978;9.294;2022-11-20T11:31:49;98514.13;;;5.88;100.00
49877;BME280;35771;48.978;9.294;2022-11-20T11:34:17;98510.72;;;5.94;100.00
49877;BME280;35771;48.978;9.294;2022-11-20T11:36:57;98522.22;;;5.96;100.00
49877;BME280;35771;48.978;9.294;2022-11-20T11:39:27;98501.50;;;5.97;100.00
49877;BME280;35771;48.978;9.294;2022-11-20T11:41:55;98526.75;;;6.20;100.00
49877;BME280;35771;48.978;9.294;2022-11-20T11:44:24;98510.38;;;6.14;100.00
49877;BME280;35771;48.978;9.294;2022-11-20T11:47:21;98524.84;;;6.37;100.00
49877;BME280;35771;48.978;9.294;2022-11-20T11:49:48;98532.22;;;6.52;100.00
49877;BME280;35771;48.978;9.294;2022-11-20T11:52:17;98515.50;;;6.57;100.00
49877;BME280;35771;48.978;9.294;2022-11-20T11:54:50;98492.06;;;6.49;100.00
49877;BME280;35771;48.978;9.294;2022-11-20T11:57:24;98490.03;;;6.43;100.00
49877;BME280;35771;48.978;9.294;2022-11-20T12:00:01;98493.00;;;6.64;100.00
49877;BME280;35771;48.978;9.294;2022-11-20T12:02:36;98494.66;;;6.73;100.00
49877;BME280;35771;48.978;9.294;2022-11-20T12:05:14;98482.22;;;6.64;100.00
49877;BME280;35771;48.978;9.294;2022-11-20T12:07:45;98472.41;;;6.63;100.00
49877;BME280;35771;48.978;9.294;2022-11-20T12:10:20;98485.25;;;6.61;100.00
49877;BME280;35771;48.978;9.294;2022-11-20T12:12:51;98484.19;;;6.70;100.00
49877;BME280;35771;48.978;9.294;2022-11-20T12:15:29;98486.47;;;6.82;100.00
49877;BME280;35771;48.978;9.294;2022-11-20T12:17:56;98478.38;;;6.82;100.00
49877;BME280;35771;48.978;9.294;2022-11-20T12:20:43;98479.50;;;6.96;100.00
49877;BME280;35771;48.978;9.294;2022-11-20T12:23:18;98499.19;;;7.04;100.00
49877;BME280;35771;48.978;9.294;2022-11-20T12:25:53;98479.16;;;7.22;100.00
49877;BME280;35771;48.978;9.294;2022-11-20T12:28:47;98472.78;;;7.38;100.00
49877;BME280;35771;48.978;9.294;2022-11-20T12:31:35;98474.19;;;7.25;100.00
49877;BME280;35771;48.978;9.294;2022-11-20T12:34:24;98481.34;;;7.41;100.00
49877;BME280;35771;48.978;9.294;2022-11-20T12:37:01;98486.53;;;7.51;100.00
49877;BME280;35771;48.978;9.294;2022-11-20T12:39:34;98497.19;;;7.53;100.00
49877;BME280;35771;48.978;9.294;2022-11-20T12:42:24;98463.09;;;7.20;100.00
49877;BME280;35771;48.978;9.294;2022-11-20T12:51:36;98498.66;;;7.09;100.00
49877;BME280;35771;48.978;9.294;2022-11-20T12:54:29;98475.75;;;6.97;100.00
49877;BME280;35771;48.978;9.294;2022-11-20T12:57:24;98466.09;;;7.25;100.00
49877;BME280;35771;48.978;9.294;2022-11-20T13:00:09;98482.88;;;7.44;100.00
49877;BME280;35771;48.978;9.294;2022-11-20T13:05:32;98473.38;;;7.63;100.00
49877;BME280;35771;48.978;9.294;2022-11-20T13:08:03;98455.41;;;7.70;100.00
49877;BME280;35771;48.978;9.294;2022-11-20T13:10:42;98461.03;;;7.84;94.11
49877;BME280;35771;48.978;9.294;2022-11-20T13:13:15;98458.50;;;7.82;98.67
49877;BME280;35771;48.978;9.294;2022-11-20T13:15:51;98475.50;;;7.76;98.54
49877;BME280;35771;48.978;9.294;2022-11-20T13:18:20;98481.72;;;7.76;94.14
49877;BME280;35771;48.978;9.294;2022-11-20T13:20:47;98476.22;;;7.70;92.50
49877;BME280;35771;48.978;9.294;2022-11-20T13:23:23;98464.03;;;7.51;94.61
49877;BME280;35771;48.978;9.294;2022-11-20T13:25:50;98478.94;;;7.47;97.54
49877;BME280;35771;48.978;9.294;2022-11-20T13:28:29;98465.63;;;7.22;93.40